<?xml version="1.0" encoding="UTF-8" standalone="no" ?>
<gpx xmlns="http://www.topografix.com/GPX/1/1" xmlns:xsi="http://www.w3.org/2001/XMLSchema-instance" xsi:schemaLocation="http://www.topografix.com/GPX/1/1 http://www.topografix.com/GPX/1/1/gpx.xsd" version="1.1" creator="VisuGPX - https://www.visugpx.com">
  <metadata>
    <name>Variante : Passage par Taizé</name>
    <desc><![CDATA[

]]></desc>
  </metadata>
  <trk>
    <name><![CDATA[Variante : Passage par Taizé]]></name>
    <extensions>
      <line xmlns="http://www.topografix.com/GPX/gpx_style/0/2">
        <color>ff0000</color>
        <width>4</width>
        <dasharray>8</dasharray>
      </line>
    </extensions>
    <trkseg>
      <trkpt lat="46.52349" lon="4.65807">
        <ele>272.46</ele>
        <time>2020-07-13T11:40:22.000Z</time>
      </trkpt>
      <trkpt lat="46.52349" lon="4.65807">
        <ele>272.46</ele>
        <time>2020-07-13T11:40:22.000Z</time>
      </trkpt>
      <trkpt lat="46.52349" lon="4.65807">
        <ele>272.46</ele>
        <time>2020-07-13T11:40:22.000Z</time>
      </trkpt>
      <trkpt lat="46.52349" lon="4.65807">
        <ele>272.46</ele>
        <time>2020-07-13T11:40:22.000Z</time>
      </trkpt>
      <trkpt lat="46.52349" lon="4.65807">
        <ele>272.46</ele>
        <time>2020-07-13T11:40:22.000Z</time>
      </trkpt>
      <trkpt lat="46.52349" lon="4.65807">
        <ele>272.46</ele>
        <time>2020-07-13T11:40:22.000Z</time>
      </trkpt>
      <trkpt lat="46.52349" lon="4.65807">
        <ele>272.46</ele>
        <time>2020-07-13T11:40:22.000Z</time>
      </trkpt>
      <trkpt lat="46.52349" lon="4.65807">
        <ele>272.46</ele>
        <time>2020-07-13T11:40:22.000Z</time>
      </trkpt>
      <trkpt lat="46.52349" lon="4.65807">
        <ele>272.46</ele>
        <time>2020-07-13T11:40:22.000Z</time>
      </trkpt>
      <trkpt lat="46.52349" lon="4.65807">
        <ele>272.46</ele>
        <time>2020-07-13T11:40:22.000Z</time>
      </trkpt>
      <trkpt lat="46.52348" lon="4.65821">
        <ele>273.35</ele>
        <time>2020-07-13T11:41:55.000Z</time>
      </trkpt>
      <trkpt lat="46.52348" lon="4.65835">
        <ele>273.43</ele>
        <time>2020-07-13T11:42:02.000Z</time>
      </trkpt>
      <trkpt lat="46.5235" lon="4.65848">
        <ele>273.51</ele>
        <time>2020-07-13T11:42:10.000Z</time>
      </trkpt>
      <trkpt lat="46.52354" lon="4.6586">
        <ele>273.56</ele>
        <time>2020-07-13T11:42:18.000Z</time>
      </trkpt>
      <trkpt lat="46.52358" lon="4.65873">
        <ele>273.6</ele>
        <time>2020-07-13T11:42:26.000Z</time>
      </trkpt>
      <trkpt lat="46.52362" lon="4.65887">
        <ele>273.62</ele>
        <time>2020-07-13T11:42:35.000Z</time>
      </trkpt>
      <trkpt lat="46.52366" lon="4.659">
        <ele>273.63</ele>
        <time>2020-07-13T11:42:44.000Z</time>
      </trkpt>
      <trkpt lat="46.52369" lon="4.65915">
        <ele>273.63</ele>
        <time>2020-07-13T11:42:53.000Z</time>
      </trkpt>
      <trkpt lat="46.52371" lon="4.65928">
        <ele>273.62</ele>
        <time>2020-07-13T11:43:01.000Z</time>
      </trkpt>
      <trkpt lat="46.5237" lon="4.65941">
        <ele>273.61</ele>
        <time>2020-07-13T11:43:10.000Z</time>
      </trkpt>
      <trkpt lat="46.5237" lon="4.65956">
        <ele>273.6</ele>
        <time>2020-07-13T11:43:18.000Z</time>
      </trkpt>
      <trkpt lat="46.5237" lon="4.6597">
        <ele>273.58</ele>
        <time>2020-07-13T11:43:28.000Z</time>
      </trkpt>
      <trkpt lat="46.52371" lon="4.65983">
        <ele>273.56</ele>
        <time>2020-07-13T11:43:35.000Z</time>
      </trkpt>
      <trkpt lat="46.52371" lon="4.65997">
        <ele>273.54</ele>
        <time>2020-07-13T11:43:44.000Z</time>
      </trkpt>
      <trkpt lat="46.5237" lon="4.66011">
        <ele>273.51</ele>
        <time>2020-07-13T11:43:53.000Z</time>
      </trkpt>
      <trkpt lat="46.52371" lon="4.66025">
        <ele>273.47</ele>
        <time>2020-07-13T11:44:02.000Z</time>
      </trkpt>
      <trkpt lat="46.52376" lon="4.66038">
        <ele>273.43</ele>
        <time>2020-07-13T11:44:11.000Z</time>
      </trkpt>
      <trkpt lat="46.52379" lon="4.6605">
        <ele>273.39</ele>
        <time>2020-07-13T11:44:18.000Z</time>
      </trkpt>
      <trkpt lat="46.52381" lon="4.66063">
        <ele>273.3</ele>
        <time>2020-07-13T11:44:36.000Z</time>
      </trkpt>
      <trkpt lat="46.52379" lon="4.66076">
        <ele>273.22</ele>
        <time>2020-07-13T11:44:46.000Z</time>
      </trkpt>
      <trkpt lat="46.52378" lon="4.6609">
        <ele>273.17</ele>
        <time>2020-07-13T11:44:54.000Z</time>
      </trkpt>
      <trkpt lat="46.52378" lon="4.66103">
        <ele>273.11</ele>
        <time>2020-07-13T11:45:03.000Z</time>
      </trkpt>
      <trkpt lat="46.52378" lon="4.66117">
        <ele>273.07</ele>
        <time>2020-07-13T11:45:11.000Z</time>
      </trkpt>
      <trkpt lat="46.52375" lon="4.66131">
        <ele>273.04</ele>
        <time>2020-07-13T11:45:19.000Z</time>
      </trkpt>
      <trkpt lat="46.52374" lon="4.66146">
        <ele>273.01</ele>
        <time>2020-07-13T11:45:27.000Z</time>
      </trkpt>
      <trkpt lat="46.52372" lon="4.6616">
        <ele>273</ele>
        <time>2020-07-13T11:45:37.000Z</time>
      </trkpt>
      <trkpt lat="46.52366" lon="4.66171">
        <ele>272.98</ele>
        <time>2020-07-13T11:45:46.000Z</time>
      </trkpt>
      <trkpt lat="46.52364" lon="4.66184">
        <ele>272.97</ele>
        <time>2020-07-13T11:45:55.000Z</time>
      </trkpt>
      <trkpt lat="46.52365" lon="4.66198">
        <ele>272.95</ele>
        <time>2020-07-13T11:46:04.000Z</time>
      </trkpt>
      <trkpt lat="46.52368" lon="4.66211">
        <ele>272.89</ele>
        <time>2020-07-13T11:46:34.000Z</time>
      </trkpt>
      <trkpt lat="46.52371" lon="4.66224">
        <ele>272.82</ele>
        <time>2020-07-13T11:46:43.000Z</time>
      </trkpt>
      <trkpt lat="46.52377" lon="4.66235">
        <ele>272.75</ele>
        <time>2020-07-13T11:46:53.000Z</time>
      </trkpt>
      <trkpt lat="46.52384" lon="4.66244">
        <ele>272.7</ele>
        <time>2020-07-13T11:47:02.000Z</time>
      </trkpt>
      <trkpt lat="46.52391" lon="4.66253">
        <ele>272.64</ele>
        <time>2020-07-13T11:47:13.000Z</time>
      </trkpt>
      <trkpt lat="46.524" lon="4.66258">
        <ele>272.59</ele>
        <time>2020-07-13T11:47:22.000Z</time>
      </trkpt>
      <trkpt lat="46.52408" lon="4.66264">
        <ele>272.55</ele>
        <time>2020-07-13T11:47:31.000Z</time>
      </trkpt>
      <trkpt lat="46.52416" lon="4.66272">
        <ele>272.5</ele>
        <time>2020-07-13T11:47:40.000Z</time>
      </trkpt>
      <trkpt lat="46.52425" lon="4.66277">
        <ele>272.46</ele>
        <time>2020-07-13T11:47:48.000Z</time>
      </trkpt>
      <trkpt lat="46.52432" lon="4.66285">
        <ele>272.41</ele>
        <time>2020-07-13T11:47:57.000Z</time>
      </trkpt>
      <trkpt lat="46.52437" lon="4.66297">
        <ele>272.36</ele>
        <time>2020-07-13T11:48:05.000Z</time>
      </trkpt>
      <trkpt lat="46.52436" lon="4.66311">
        <ele>272.3</ele>
        <time>2020-07-13T11:48:13.000Z</time>
      </trkpt>
      <trkpt lat="46.52434" lon="4.66325">
        <ele>272.21</ele>
        <time>2020-07-13T11:48:24.000Z</time>
      </trkpt>
      <trkpt lat="46.52432" lon="4.66338">
        <ele>271.9</ele>
        <time>2020-07-13T11:50:29.999Z</time>
      </trkpt>
      <trkpt lat="46.52429" lon="4.66351">
        <ele>271.83</ele>
        <time>2020-07-13T11:50:36.999Z</time>
      </trkpt>
      <trkpt lat="46.52429" lon="4.66365">
        <ele>271.74</ele>
        <time>2020-07-13T11:50:46.999Z</time>
      </trkpt>
      <trkpt lat="46.52432" lon="4.66378">
        <ele>271.66</ele>
        <time>2020-07-13T11:50:55.999Z</time>
      </trkpt>
      <trkpt lat="46.52434" lon="4.66391">
        <ele>271.59</ele>
        <time>2020-07-13T11:51:04.999Z</time>
      </trkpt>
      <trkpt lat="46.52438" lon="4.66404">
        <ele>271.52</ele>
        <time>2020-07-13T11:51:14.999Z</time>
      </trkpt>
      <trkpt lat="46.52439" lon="4.66418">
        <ele>271.46</ele>
        <time>2020-07-13T11:51:21.999Z</time>
      </trkpt>
      <trkpt lat="46.52442" lon="4.66431">
        <ele>271.39</ele>
        <time>2020-07-13T11:51:29.999Z</time>
      </trkpt>
      <trkpt lat="46.52443" lon="4.66444">
        <ele>271.31</ele>
        <time>2020-07-13T11:51:38.999Z</time>
      </trkpt>
      <trkpt lat="46.52445" lon="4.66458">
        <ele>271.24</ele>
        <time>2020-07-13T11:51:46.999Z</time>
      </trkpt>
      <trkpt lat="46.52446" lon="4.66472">
        <ele>271.16</ele>
        <time>2020-07-13T11:51:56.999Z</time>
      </trkpt>
      <trkpt lat="46.52448" lon="4.66486">
        <ele>271.08</ele>
        <time>2020-07-13T11:52:06.999Z</time>
      </trkpt>
      <trkpt lat="46.52449" lon="4.665">
        <ele>271.01</ele>
        <time>2020-07-13T11:52:16.999Z</time>
      </trkpt>
      <trkpt lat="46.52451" lon="4.66514">
        <ele>270.94</ele>
        <time>2020-07-13T11:52:25.999Z</time>
      </trkpt>
      <trkpt lat="46.52454" lon="4.66528">
        <ele>270.88</ele>
        <time>2020-07-13T11:52:33.999Z</time>
      </trkpt>
      <trkpt lat="46.52459" lon="4.6654">
        <ele>270.82</ele>
        <time>2020-07-13T11:52:40.999Z</time>
      </trkpt>
      <trkpt lat="46.52463" lon="4.66554">
        <ele>270.75</ele>
        <time>2020-07-13T11:52:49.999Z</time>
      </trkpt>
      <trkpt lat="46.52465" lon="4.66567">
        <ele>270.68</ele>
        <time>2020-07-13T11:52:57.999Z</time>
      </trkpt>
      <trkpt lat="46.52469" lon="4.6658">
        <ele>270.62</ele>
        <time>2020-07-13T11:53:05.999Z</time>
      </trkpt>
      <trkpt lat="46.52472" lon="4.66593">
        <ele>270.56</ele>
        <time>2020-07-13T11:53:14.999Z</time>
      </trkpt>
      <trkpt lat="46.52472" lon="4.66606">
        <ele>270.49</ele>
        <time>2020-07-13T11:53:24.999Z</time>
      </trkpt>
      <trkpt lat="46.52475" lon="4.6662">
        <ele>270.42</ele>
        <time>2020-07-13T11:53:32.999Z</time>
      </trkpt>
      <trkpt lat="46.52479" lon="4.66632">
        <ele>270.37</ele>
        <time>2020-07-13T11:53:39.999Z</time>
      </trkpt>
      <trkpt lat="46.52484" lon="4.66644">
        <ele>270.31</ele>
        <time>2020-07-13T11:53:46.999Z</time>
      </trkpt>
      <trkpt lat="46.52489" lon="4.66657">
        <ele>270.24</ele>
        <time>2020-07-13T11:53:55.999Z</time>
      </trkpt>
      <trkpt lat="46.52492" lon="4.66669">
        <ele>270.19</ele>
        <time>2020-07-13T11:54:03.999Z</time>
      </trkpt>
      <trkpt lat="46.52494" lon="4.66682">
        <ele>270.13</ele>
        <time>2020-07-13T11:54:11.999Z</time>
      </trkpt>
      <trkpt lat="46.52495" lon="4.66696">
        <ele>270.08</ele>
        <time>2020-07-13T11:54:20.999Z</time>
      </trkpt>
      <trkpt lat="46.52497" lon="4.6671">
        <ele>270.03</ele>
        <time>2020-07-13T11:54:28.999Z</time>
      </trkpt>
      <trkpt lat="46.52499" lon="4.66724">
        <ele>269.98</ele>
        <time>2020-07-13T11:54:37.999Z</time>
      </trkpt>
      <trkpt lat="46.52501" lon="4.66737">
        <ele>269.93</ele>
        <time>2020-07-13T11:54:45.999Z</time>
      </trkpt>
      <trkpt lat="46.52504" lon="4.66749">
        <ele>269.89</ele>
        <time>2020-07-13T11:54:53.999Z</time>
      </trkpt>
      <trkpt lat="46.52506" lon="4.66763">
        <ele>269.85</ele>
        <time>2020-07-13T11:55:02.999Z</time>
      </trkpt>
      <trkpt lat="46.52504" lon="4.66776">
        <ele>269.79</ele>
        <time>2020-07-13T11:55:12.999Z</time>
      </trkpt>
      <trkpt lat="46.52506" lon="4.6679">
        <ele>269.72</ele>
        <time>2020-07-13T11:55:23.999Z</time>
      </trkpt>
      <trkpt lat="46.52506" lon="4.66805">
        <ele>269.67</ele>
        <time>2020-07-13T11:55:32.999Z</time>
      </trkpt>
      <trkpt lat="46.52505" lon="4.66818">
        <ele>269.62</ele>
        <time>2020-07-13T11:55:40.999Z</time>
      </trkpt>
      <trkpt lat="46.52503" lon="4.66831">
        <ele>269.57</ele>
        <time>2020-07-13T11:55:48.999Z</time>
      </trkpt>
      <trkpt lat="46.52504" lon="4.66845">
        <ele>269.52</ele>
        <time>2020-07-13T11:55:57.999Z</time>
      </trkpt>
      <trkpt lat="46.52502" lon="4.66858">
        <ele>269.47</ele>
        <time>2020-07-13T11:56:05.999Z</time>
      </trkpt>
      <trkpt lat="46.52499" lon="4.66871">
        <ele>269.42</ele>
        <time>2020-07-13T11:56:14.999Z</time>
      </trkpt>
      <trkpt lat="46.52495" lon="4.66883">
        <ele>269.38</ele>
        <time>2020-07-13T11:56:21.999Z</time>
      </trkpt>
      <trkpt lat="46.52493" lon="4.66896">
        <ele>269.33</ele>
        <time>2020-07-13T11:56:31.999Z</time>
      </trkpt>
      <trkpt lat="46.52489" lon="4.66909">
        <ele>269.28</ele>
        <time>2020-07-13T11:56:41.999Z</time>
      </trkpt>
      <trkpt lat="46.52488" lon="4.66923">
        <ele>269.24</ele>
        <time>2020-07-13T11:56:50.999Z</time>
      </trkpt>
      <trkpt lat="46.52485" lon="4.66937">
        <ele>269.18</ele>
        <time>2020-07-13T11:57:02.999Z</time>
      </trkpt>
      <trkpt lat="46.52485" lon="4.66951">
        <ele>269.13</ele>
        <time>2020-07-13T11:57:11.999Z</time>
      </trkpt>
      <trkpt lat="46.52482" lon="4.66966">
        <ele>269.08</ele>
        <time>2020-07-13T11:57:21.999Z</time>
      </trkpt>
      <trkpt lat="46.52478" lon="4.6698">
        <ele>269.04</ele>
        <time>2020-07-13T11:57:30.999Z</time>
      </trkpt>
      <trkpt lat="46.52476" lon="4.66993">
        <ele>269.01</ele>
        <time>2020-07-13T11:57:39.999Z</time>
      </trkpt>
      <trkpt lat="46.52473" lon="4.67007">
        <ele>268.98</ele>
        <time>2020-07-13T11:57:48.999Z</time>
      </trkpt>
      <trkpt lat="46.52471" lon="4.67021">
        <ele>268.95</ele>
        <time>2020-07-13T11:57:59.999Z</time>
      </trkpt>
      <trkpt lat="46.52467" lon="4.67034">
        <ele>268.92</ele>
        <time>2020-07-13T11:58:07.999Z</time>
      </trkpt>
      <trkpt lat="46.52463" lon="4.67048">
        <ele>268.9</ele>
        <time>2020-07-13T11:58:18.999Z</time>
      </trkpt>
      <trkpt lat="46.52459" lon="4.67059">
        <ele>268.88</ele>
        <time>2020-07-13T11:58:25.999Z</time>
      </trkpt>
      <trkpt lat="46.52455" lon="4.67073">
        <ele>268.86</ele>
        <time>2020-07-13T11:58:32.999Z</time>
      </trkpt>
      <trkpt lat="46.5245" lon="4.67086">
        <ele>268.83</ele>
        <time>2020-07-13T11:58:40.999Z</time>
      </trkpt>
      <trkpt lat="46.52446" lon="4.67099">
        <ele>268.8</ele>
        <time>2020-07-13T11:58:48.999Z</time>
      </trkpt>
      <trkpt lat="46.52444" lon="4.67113">
        <ele>268.77</ele>
        <time>2020-07-13T11:58:58.999Z</time>
      </trkpt>
      <trkpt lat="46.52439" lon="4.67124">
        <ele>268.74</ele>
        <time>2020-07-13T11:59:08.999Z</time>
      </trkpt>
      <trkpt lat="46.52437" lon="4.67137">
        <ele>268.71</ele>
        <time>2020-07-13T11:59:20.999Z</time>
      </trkpt>
      <trkpt lat="46.52436" lon="4.67149">
        <ele>268.67</ele>
        <time>2020-07-13T11:59:35.999Z</time>
      </trkpt>
      <trkpt lat="46.52436" lon="4.67163">
        <ele>268.7</ele>
        <time>2020-07-13T12:00:23.999Z</time>
      </trkpt>
      <trkpt lat="46.52433" lon="4.67176">
        <ele>268.9</ele>
        <time>2020-07-13T12:01:25.999Z</time>
      </trkpt>
      <trkpt lat="46.52429" lon="4.67189">
        <ele>268.99</ele>
        <time>2020-07-13T12:01:38.999Z</time>
      </trkpt>
      <trkpt lat="46.52426" lon="4.67202">
        <ele>269.03</ele>
        <time>2020-07-13T12:01:47.999Z</time>
      </trkpt>
      <trkpt lat="46.52422" lon="4.67215">
        <ele>269.08</ele>
        <time>2020-07-13T12:01:54.999Z</time>
      </trkpt>
      <trkpt lat="46.52417" lon="4.67226">
        <ele>269.14</ele>
        <time>2020-07-13T12:02:02.999Z</time>
      </trkpt>
      <trkpt lat="46.52413" lon="4.67238">
        <ele>269.25</ele>
        <time>2020-07-13T12:02:13.999Z</time>
      </trkpt>
      <trkpt lat="46.52418" lon="4.67249">
        <ele>269.35</ele>
        <time>2020-07-13T12:02:24.999Z</time>
      </trkpt>
      <trkpt lat="46.52425" lon="4.67257">
        <ele>269.42</ele>
        <time>2020-07-13T12:02:33.999Z</time>
      </trkpt>
      <trkpt lat="46.52429" lon="4.67269">
        <ele>269.5</ele>
        <time>2020-07-13T12:02:45.999Z</time>
      </trkpt>
      <trkpt lat="46.52434" lon="4.67281">
        <ele>269.57</ele>
        <time>2020-07-13T12:02:56.999Z</time>
      </trkpt>
      <trkpt lat="46.52439" lon="4.67293">
        <ele>269.62</ele>
        <time>2020-07-13T12:03:05.999Z</time>
      </trkpt>
      <trkpt lat="46.52445" lon="4.67303">
        <ele>269.65</ele>
        <time>2020-07-13T12:03:13.999Z</time>
      </trkpt>
      <trkpt lat="46.52452" lon="4.67312">
        <ele>269.69</ele>
        <time>2020-07-13T12:03:20.999Z</time>
      </trkpt>
      <trkpt lat="46.52459" lon="4.67322">
        <ele>269.74</ele>
        <time>2020-07-13T12:03:30.999Z</time>
      </trkpt>
      <trkpt lat="46.52467" lon="4.67328">
        <ele>269.83</ele>
        <time>2020-07-13T12:03:46.999Z</time>
      </trkpt>
      <trkpt lat="46.52476" lon="4.67334">
        <ele>269.91</ele>
        <time>2020-07-13T12:03:56.999Z</time>
      </trkpt>
      <trkpt lat="46.52484" lon="4.67343">
        <ele>269.99</ele>
        <time>2020-07-13T12:04:05.999Z</time>
      </trkpt>
      <trkpt lat="46.52492" lon="4.6735">
        <ele>270.08</ele>
        <time>2020-07-13T12:04:15.999Z</time>
      </trkpt>
      <trkpt lat="46.52501" lon="4.67357">
        <ele>270.15</ele>
        <time>2020-07-13T12:04:23.999Z</time>
      </trkpt>
      <trkpt lat="46.52509" lon="4.67366">
        <ele>270.24</ele>
        <time>2020-07-13T12:04:35.999Z</time>
      </trkpt>
      <trkpt lat="46.52517" lon="4.67376">
        <ele>270.39</ele>
        <time>2020-07-13T12:04:44.999Z</time>
      </trkpt>
      <trkpt lat="46.52522" lon="4.67387">
        <ele>270.56</ele>
        <time>2020-07-13T12:04:54.999Z</time>
      </trkpt>
      <trkpt lat="46.52526" lon="4.674">
        <ele>270.72</ele>
        <time>2020-07-13T12:05:05.999Z</time>
      </trkpt>
      <trkpt lat="46.52529" lon="4.67412">
        <ele>270.86</ele>
        <time>2020-07-13T12:05:16.999Z</time>
      </trkpt>
      <trkpt lat="46.5253" lon="4.67425">
        <ele>270.95</ele>
        <time>2020-07-13T12:05:25.999Z</time>
      </trkpt>
      <trkpt lat="46.5253" lon="4.6744">
        <ele>271.03</ele>
        <time>2020-07-13T12:05:36.999Z</time>
      </trkpt>
      <trkpt lat="46.52529" lon="4.67453">
        <ele>271.08</ele>
        <time>2020-07-13T12:05:44.999Z</time>
      </trkpt>
      <trkpt lat="46.52529" lon="4.67468">
        <ele>271.13</ele>
        <time>2020-07-13T12:05:54.999Z</time>
      </trkpt>
      <trkpt lat="46.52527" lon="4.67481">
        <ele>271.16</ele>
        <time>2020-07-13T12:06:01.999Z</time>
      </trkpt>
      <trkpt lat="46.52527" lon="4.67495">
        <ele>271.23</ele>
        <time>2020-07-13T12:06:30.999Z</time>
      </trkpt>
      <trkpt lat="46.52529" lon="4.67508">
        <ele>271.3</ele>
        <time>2020-07-13T12:06:48.999Z</time>
      </trkpt>
      <trkpt lat="46.52529" lon="4.67522">
        <ele>271.42</ele>
        <time>2020-07-13T12:06:58.999Z</time>
      </trkpt>
      <trkpt lat="46.52537" lon="4.67533">
        <ele>271.58</ele>
        <time>2020-07-13T12:07:09.999Z</time>
      </trkpt>
      <trkpt lat="46.52544" lon="4.67543">
        <ele>271.82</ele>
        <time>2020-07-13T12:07:19.999Z</time>
      </trkpt>
      <trkpt lat="46.52549" lon="4.67554">
        <ele>272.21</ele>
        <time>2020-07-13T12:07:31.999Z</time>
      </trkpt>
      <trkpt lat="46.52555" lon="4.67564">
        <ele>272.59</ele>
        <time>2020-07-13T12:07:42.999Z</time>
      </trkpt>
      <trkpt lat="46.52563" lon="4.67573">
        <ele>273</ele>
        <time>2020-07-13T12:07:53.999Z</time>
      </trkpt>
      <trkpt lat="46.52567" lon="4.67585">
        <ele>273.39</ele>
        <time>2020-07-13T12:08:04.999Z</time>
      </trkpt>
      <trkpt lat="46.52567" lon="4.67598">
        <ele>273.81</ele>
        <time>2020-07-13T12:08:15.999Z</time>
      </trkpt>
      <trkpt lat="46.52563" lon="4.67611">
        <ele>274.21</ele>
        <time>2020-07-13T12:08:28.999Z</time>
      </trkpt>
      <trkpt lat="46.52567" lon="4.67623">
        <ele>274.52</ele>
        <time>2020-07-13T12:08:39.999Z</time>
      </trkpt>
      <trkpt lat="46.52566" lon="4.67636">
        <ele>275.05</ele>
        <time>2020-07-13T12:08:54.999Z</time>
      </trkpt>
      <trkpt lat="46.5257" lon="4.67649">
        <ele>275.39</ele>
        <time>2020-07-13T12:09:01.999Z</time>
      </trkpt>
      <trkpt lat="46.52569" lon="4.67663">
        <ele>276.02</ele>
        <time>2020-07-13T12:09:12.999Z</time>
      </trkpt>
      <trkpt lat="46.52568" lon="4.67677">
        <ele>276.69</ele>
        <time>2020-07-13T12:09:23.999Z</time>
      </trkpt>
      <trkpt lat="46.52571" lon="4.67691">
        <ele>278.11</ele>
        <time>2020-07-13T12:09:41.999Z</time>
      </trkpt>
      <trkpt lat="46.52574" lon="4.67704">
        <ele>279.36</ele>
        <time>2020-07-13T12:10:17.999Z</time>
      </trkpt>
      <trkpt lat="46.52564" lon="4.67701">
        <ele>280.15</ele>
        <time>2020-07-13T12:10:39.999Z</time>
      </trkpt>
      <trkpt lat="46.52555" lon="4.67704">
        <ele>280.96</ele>
        <time>2020-07-13T12:11:04.999Z</time>
      </trkpt>
      <trkpt lat="46.52547" lon="4.67712">
        <ele>281.72</ele>
        <time>2020-07-13T12:11:19.999Z</time>
      </trkpt>
      <trkpt lat="46.52541" lon="4.67721">
        <ele>282.15</ele>
        <time>2020-07-13T12:11:28.999Z</time>
      </trkpt>
      <trkpt lat="46.52537" lon="4.67733">
        <ele>282.88</ele>
        <time>2020-07-13T12:11:44.999Z</time>
      </trkpt>
      <trkpt lat="46.5253" lon="4.67743">
        <ele>283.87</ele>
        <time>2020-07-13T12:12:15.999Z</time>
      </trkpt>
      <trkpt lat="46.52539" lon="4.67744">
        <ele>285.74</ele>
        <time>2020-07-13T12:13:37.999Z</time>
      </trkpt>
      <trkpt lat="46.52548" lon="4.67743">
        <ele>286.19</ele>
        <time>2020-07-13T12:13:44.999Z</time>
      </trkpt>
      <trkpt lat="46.52558" lon="4.67742">
        <ele>287.22</ele>
        <time>2020-07-13T12:13:59.999Z</time>
      </trkpt>
      <trkpt lat="46.52567" lon="4.6775">
        <ele>288.26</ele>
        <time>2020-07-13T12:14:09.999Z</time>
      </trkpt>
      <trkpt lat="46.52576" lon="4.67749">
        <ele>291.63</ele>
        <time>2020-07-13T12:15:06.000Z</time>
      </trkpt>
      <trkpt lat="46.52585" lon="4.67748">
        <ele>293.34</ele>
        <time>2020-07-13T12:15:18.000Z</time>
      </trkpt>
      <trkpt lat="46.52595" lon="4.67751">
        <ele>294.73</ele>
        <time>2020-07-13T12:15:36.000Z</time>
      </trkpt>
      <trkpt lat="46.52602" lon="4.67761">
        <ele>295.51</ele>
        <time>2020-07-13T12:15:45.000Z</time>
      </trkpt>
      <trkpt lat="46.52583" lon="4.67787">
        <ele>316.22</ele>
        <time>2020-07-13T12:45:56.000Z</time>
      </trkpt>
      <trkpt lat="46.52573" lon="4.67786">
        <ele>316.34</ele>
        <time>2020-07-13T12:46:10.000Z</time>
      </trkpt>
      <trkpt lat="46.52581" lon="4.67792">
        <ele>316.59</ele>
        <time>2020-07-13T12:47:03.000Z</time>
      </trkpt>
      <trkpt lat="46.52572" lon="4.67789">
        <ele>317.56</ele>
        <time>2020-07-13T12:48:46.000Z</time>
      </trkpt>
      <trkpt lat="46.52562" lon="4.67789">
        <ele>317.94</ele>
        <time>2020-07-13T12:48:56.000Z</time>
      </trkpt>
      <trkpt lat="46.52552" lon="4.67797">
        <ele>319.03</ele>
        <time>2020-07-13T12:49:44.000Z</time>
      </trkpt>
      <trkpt lat="46.52544" lon="4.67789">
        <ele>319.24</ele>
        <time>2020-07-13T12:49:54.000Z</time>
      </trkpt>
      <trkpt lat="46.52536" lon="4.67784">
        <ele>319.38</ele>
        <time>2020-07-13T12:50:04.000Z</time>
      </trkpt>
      <trkpt lat="46.52527" lon="4.67779">
        <ele>319.47</ele>
        <time>2020-07-13T12:50:13.000Z</time>
      </trkpt>
      <trkpt lat="46.5252" lon="4.67788">
        <ele>319.6</ele>
        <time>2020-07-13T12:50:29.000Z</time>
      </trkpt>
      <trkpt lat="46.52513" lon="4.67796">
        <ele>319.7</ele>
        <time>2020-07-13T12:51:28.000Z</time>
      </trkpt>
      <trkpt lat="46.52503" lon="4.67799">
        <ele>319.74</ele>
        <time>2020-07-13T12:51:39.000Z</time>
      </trkpt>
      <trkpt lat="46.52494" lon="4.67794">
        <ele>319.78</ele>
        <time>2020-07-13T12:51:48.000Z</time>
      </trkpt>
      <trkpt lat="46.52484" lon="4.6779">
        <ele>319.82</ele>
        <time>2020-07-13T12:51:56.000Z</time>
      </trkpt>
      <trkpt lat="46.52475" lon="4.67787">
        <ele>319.85</ele>
        <time>2020-07-13T12:52:02.000Z</time>
      </trkpt>
      <trkpt lat="46.52466" lon="4.67782">
        <ele>319.9</ele>
        <time>2020-07-13T12:52:10.000Z</time>
      </trkpt>
      <trkpt lat="46.52457" lon="4.67781">
        <ele>319.97</ele>
        <time>2020-07-13T12:52:24.000Z</time>
      </trkpt>
      <trkpt lat="46.52446" lon="4.67779">
        <ele>320.01</ele>
        <time>2020-07-13T12:52:34.000Z</time>
      </trkpt>
      <trkpt lat="46.52437" lon="4.6778">
        <ele>320.04</ele>
        <time>2020-07-13T12:52:41.000Z</time>
      </trkpt>
      <trkpt lat="46.52427" lon="4.67777">
        <ele>320.05</ele>
        <time>2020-07-13T12:52:47.000Z</time>
      </trkpt>
      <trkpt lat="46.52418" lon="4.67771">
        <ele>320.1</ele>
        <time>2020-07-13T12:52:55.000Z</time>
      </trkpt>
      <trkpt lat="46.52409" lon="4.67771">
        <ele>320.22</ele>
        <time>2020-07-13T12:53:11.000Z</time>
      </trkpt>
      <trkpt lat="46.52399" lon="4.67769">
        <ele>320.28</ele>
        <time>2020-07-13T12:53:19.000Z</time>
      </trkpt>
      <trkpt lat="46.52389" lon="4.67768">
        <ele>320.34</ele>
        <time>2020-07-13T12:53:28.000Z</time>
      </trkpt>
      <trkpt lat="46.52379" lon="4.67771">
        <ele>320.43</ele>
        <time>2020-07-13T12:53:39.000Z</time>
      </trkpt>
      <trkpt lat="46.52369" lon="4.67771">
        <ele>320.49</ele>
        <time>2020-07-13T12:53:47.000Z</time>
      </trkpt>
      <trkpt lat="46.5236" lon="4.67769">
        <ele>320.59</ele>
        <time>2020-07-13T12:53:58.000Z</time>
      </trkpt>
      <trkpt lat="46.52349" lon="4.67771">
        <ele>320.68</ele>
        <time>2020-07-13T12:54:07.000Z</time>
      </trkpt>
      <trkpt lat="46.5234" lon="4.67773">
        <ele>320.76</ele>
        <time>2020-07-13T12:54:14.000Z</time>
      </trkpt>
      <trkpt lat="46.5233" lon="4.67769">
        <ele>320.84</ele>
        <time>2020-07-13T12:54:22.000Z</time>
      </trkpt>
      <trkpt lat="46.52319" lon="4.67769">
        <ele>320.94</ele>
        <time>2020-07-13T12:54:31.000Z</time>
      </trkpt>
      <trkpt lat="46.5231" lon="4.6777">
        <ele>321.05</ele>
        <time>2020-07-13T12:54:41.000Z</time>
      </trkpt>
      <trkpt lat="46.523" lon="4.67768">
        <ele>321.13</ele>
        <time>2020-07-13T12:54:49.000Z</time>
      </trkpt>
      <trkpt lat="46.52291" lon="4.67767">
        <ele>321.21</ele>
        <time>2020-07-13T12:54:58.000Z</time>
      </trkpt>
      <trkpt lat="46.52281" lon="4.67767">
        <ele>321.26</ele>
        <time>2020-07-13T12:55:07.000Z</time>
      </trkpt>
      <trkpt lat="46.52272" lon="4.67769">
        <ele>321.29</ele>
        <time>2020-07-13T12:55:14.000Z</time>
      </trkpt>
      <trkpt lat="46.52262" lon="4.67771">
        <ele>321.34</ele>
        <time>2020-07-13T12:55:22.000Z</time>
      </trkpt>
      <trkpt lat="46.52252" lon="4.67769">
        <ele>321.4</ele>
        <time>2020-07-13T12:55:31.000Z</time>
      </trkpt>
      <trkpt lat="46.52243" lon="4.67767">
        <ele>321.44</ele>
        <time>2020-07-13T12:55:39.000Z</time>
      </trkpt>
      <trkpt lat="46.52234" lon="4.67764">
        <ele>321.48</ele>
        <time>2020-07-13T12:55:51.000Z</time>
      </trkpt>
      <trkpt lat="46.52223" lon="4.67767">
        <ele>321.49</ele>
        <time>2020-07-13T12:56:01.000Z</time>
      </trkpt>
      <trkpt lat="46.52219" lon="4.67781">
        <ele>321.49</ele>
        <time>2020-07-13T12:56:05.000Z</time>
      </trkpt>
      <trkpt lat="46.5221" lon="4.67777">
        <ele>321.49</ele>
        <time>2020-07-13T12:56:14.000Z</time>
      </trkpt>
      <trkpt lat="46.52205" lon="4.67789">
        <ele>321.49</ele>
        <time>2020-07-13T12:56:28.000Z</time>
      </trkpt>
      <trkpt lat="46.52188" lon="4.67793">
        <ele>323.3</ele>
        <time>2020-07-13T13:04:00.000Z</time>
      </trkpt>
      <trkpt lat="46.52178" lon="4.67792">
        <ele>323.29</ele>
        <time>2020-07-13T13:04:06.000Z</time>
      </trkpt>
      <trkpt lat="46.52168" lon="4.67792">
        <ele>323.28</ele>
        <time>2020-07-13T13:04:13.000Z</time>
      </trkpt>
      <trkpt lat="46.52158" lon="4.67792">
        <ele>323.27</ele>
        <time>2020-07-13T13:04:20.000Z</time>
      </trkpt>
      <trkpt lat="46.52148" lon="4.67792">
        <ele>323.25</ele>
        <time>2020-07-13T13:04:28.000Z</time>
      </trkpt>
      <trkpt lat="46.52137" lon="4.67792">
        <ele>323.24</ele>
        <time>2020-07-13T13:04:36.000Z</time>
      </trkpt>
      <trkpt lat="46.52128" lon="4.67793">
        <ele>323.25</ele>
        <time>2020-07-13T13:04:42.000Z</time>
      </trkpt>
      <trkpt lat="46.52119" lon="4.67796">
        <ele>323.27</ele>
        <time>2020-07-13T13:04:53.000Z</time>
      </trkpt>
      <trkpt lat="46.52109" lon="4.67799">
        <ele>323.25</ele>
        <time>2020-07-13T13:05:04.000Z</time>
      </trkpt>
      <trkpt lat="46.521" lon="4.67801">
        <ele>323.22</ele>
        <time>2020-07-13T13:05:11.000Z</time>
      </trkpt>
      <trkpt lat="46.52091" lon="4.67804">
        <ele>323.18</ele>
        <time>2020-07-13T13:05:18.000Z</time>
      </trkpt>
      <trkpt lat="46.52082" lon="4.67805">
        <ele>323.13</ele>
        <time>2020-07-13T13:05:27.000Z</time>
      </trkpt>
      <trkpt lat="46.52073" lon="4.67809">
        <ele>323.08</ele>
        <time>2020-07-13T13:05:36.000Z</time>
      </trkpt>
      <trkpt lat="46.52063" lon="4.6781">
        <ele>323.04</ele>
        <time>2020-07-13T13:05:46.000Z</time>
      </trkpt>
      <trkpt lat="46.52053" lon="4.67812">
        <ele>323</ele>
        <time>2020-07-13T13:05:54.000Z</time>
      </trkpt>
      <trkpt lat="46.52044" lon="4.67813">
        <ele>322.97</ele>
        <time>2020-07-13T13:06:02.000Z</time>
      </trkpt>
      <trkpt lat="46.52034" lon="4.67815">
        <ele>322.94</ele>
        <time>2020-07-13T13:06:10.000Z</time>
      </trkpt>
      <trkpt lat="46.52024" lon="4.67817">
        <ele>322.9</ele>
        <time>2020-07-13T13:06:18.000Z</time>
      </trkpt>
      <trkpt lat="46.52014" lon="4.67818">
        <ele>322.87</ele>
        <time>2020-07-13T13:06:26.000Z</time>
      </trkpt>
      <trkpt lat="46.52005" lon="4.67815">
        <ele>322.83</ele>
        <time>2020-07-13T13:06:34.000Z</time>
      </trkpt>
      <trkpt lat="46.51995" lon="4.67815">
        <ele>322.78</ele>
        <time>2020-07-13T13:06:43.000Z</time>
      </trkpt>
      <trkpt lat="46.51985" lon="4.67814">
        <ele>322.72</ele>
        <time>2020-07-13T13:06:52.000Z</time>
      </trkpt>
      <trkpt lat="46.51975" lon="4.67813">
        <ele>322.67</ele>
        <time>2020-07-13T13:07:00.000Z</time>
      </trkpt>
      <trkpt lat="46.51965" lon="4.67813">
        <ele>322.62</ele>
        <time>2020-07-13T13:07:08.999Z</time>
      </trkpt>
      <trkpt lat="46.51956" lon="4.67813">
        <ele>322.56</ele>
        <time>2020-07-13T13:07:19.999Z</time>
      </trkpt>
      <trkpt lat="46.51947" lon="4.67814">
        <ele>322.5</ele>
        <time>2020-07-13T13:07:28.999Z</time>
      </trkpt>
      <trkpt lat="46.51937" lon="4.67816">
        <ele>322.46</ele>
        <time>2020-07-13T13:07:36.999Z</time>
      </trkpt>
      <trkpt lat="46.51928" lon="4.67818">
        <ele>322.43</ele>
        <time>2020-07-13T13:07:43.999Z</time>
      </trkpt>
      <trkpt lat="46.51918" lon="4.67819">
        <ele>322.4</ele>
        <time>2020-07-13T13:07:51.999Z</time>
      </trkpt>
      <trkpt lat="46.51909" lon="4.67817">
        <ele>322.36</ele>
        <time>2020-07-13T13:08:01.999Z</time>
      </trkpt>
      <trkpt lat="46.519" lon="4.67816">
        <ele>322.34</ele>
        <time>2020-07-13T13:08:09.999Z</time>
      </trkpt>
      <trkpt lat="46.5189" lon="4.67817">
        <ele>322.31</ele>
        <time>2020-07-13T13:08:17.999Z</time>
      </trkpt>
      <trkpt lat="46.51881" lon="4.67813">
        <ele>322.27</ele>
        <time>2020-07-13T13:08:26.999Z</time>
      </trkpt>
      <trkpt lat="46.51871" lon="4.67809">
        <ele>322.24</ele>
        <time>2020-07-13T13:08:34.999Z</time>
      </trkpt>
      <trkpt lat="46.51862" lon="4.67808">
        <ele>322.22</ele>
        <time>2020-07-13T13:08:42.999Z</time>
      </trkpt>
      <trkpt lat="46.51852" lon="4.67808">
        <ele>322.2</ele>
        <time>2020-07-13T13:08:51.999Z</time>
      </trkpt>
      <trkpt lat="46.51843" lon="4.67805">
        <ele>322.18</ele>
        <time>2020-07-13T13:09:00.999Z</time>
      </trkpt>
      <trkpt lat="46.51833" lon="4.67804">
        <ele>322.17</ele>
        <time>2020-07-13T13:09:08.999Z</time>
      </trkpt>
      <trkpt lat="46.51823" lon="4.67801">
        <ele>322.15</ele>
        <time>2020-07-13T13:09:19.999Z</time>
      </trkpt>
      <trkpt lat="46.51815" lon="4.67798">
        <ele>322.14</ele>
        <time>2020-07-13T13:09:28.999Z</time>
      </trkpt>
      <trkpt lat="46.51805" lon="4.67794">
        <ele>322.13</ele>
        <time>2020-07-13T13:09:37.999Z</time>
      </trkpt>
      <trkpt lat="46.51794" lon="4.67793">
        <ele>322.1</ele>
        <time>2020-07-13T13:09:48.999Z</time>
      </trkpt>
      <trkpt lat="46.51785" lon="4.67791">
        <ele>322.07</ele>
        <time>2020-07-13T13:09:56.999Z</time>
      </trkpt>
      <trkpt lat="46.51776" lon="4.67787">
        <ele>322.04</ele>
        <time>2020-07-13T13:10:04.999Z</time>
      </trkpt>
      <trkpt lat="46.51767" lon="4.67793">
        <ele>321.89</ele>
        <time>2020-07-13T13:10:28.999Z</time>
      </trkpt>
      <trkpt lat="46.51759" lon="4.67786">
        <ele>321.78</ele>
        <time>2020-07-13T13:10:37.999Z</time>
      </trkpt>
      <trkpt lat="46.51749" lon="4.67782">
        <ele>321.7</ele>
        <time>2020-07-13T13:10:44.999Z</time>
      </trkpt>
      <trkpt lat="46.5174" lon="4.67779">
        <ele>321.59</ele>
        <time>2020-07-13T13:10:53.999Z</time>
      </trkpt>
      <trkpt lat="46.5173" lon="4.67775">
        <ele>321.48</ele>
        <time>2020-07-13T13:11:02.999Z</time>
      </trkpt>
      <trkpt lat="46.51721" lon="4.67773">
        <ele>321.38</ele>
        <time>2020-07-13T13:11:11.999Z</time>
      </trkpt>
      <trkpt lat="46.51712" lon="4.6777">
        <ele>321.25</ele>
        <time>2020-07-13T13:11:22.999Z</time>
      </trkpt>
      <trkpt lat="46.51702" lon="4.67768">
        <ele>321.14</ele>
        <time>2020-07-13T13:11:32.999Z</time>
      </trkpt>
      <trkpt lat="46.51693" lon="4.67764">
        <ele>321.02</ele>
        <time>2020-07-13T13:11:46.999Z</time>
      </trkpt>
      <trkpt lat="46.51684" lon="4.67761">
        <ele>320.94</ele>
        <time>2020-07-13T13:11:54.999Z</time>
      </trkpt>
      <trkpt lat="46.51675" lon="4.67757">
        <ele>320.85</ele>
        <time>2020-07-13T13:12:02.999Z</time>
      </trkpt>
      <trkpt lat="46.51665" lon="4.67754">
        <ele>320.74</ele>
        <time>2020-07-13T13:12:11.999Z</time>
      </trkpt>
      <trkpt lat="46.51655" lon="4.67749">
        <ele>320.62</ele>
        <time>2020-07-13T13:12:22.999Z</time>
      </trkpt>
      <trkpt lat="46.51645" lon="4.67748">
        <ele>320.53</ele>
        <time>2020-07-13T13:12:31.999Z</time>
      </trkpt>
      <trkpt lat="46.51636" lon="4.67745">
        <ele>320.45</ele>
        <time>2020-07-13T13:12:39.999Z</time>
      </trkpt>
      <trkpt lat="46.51626" lon="4.67743">
        <ele>320.37</ele>
        <time>2020-07-13T13:12:48.999Z</time>
      </trkpt>
      <trkpt lat="46.51617" lon="4.67744">
        <ele>320.29</ele>
        <time>2020-07-13T13:12:58.999Z</time>
      </trkpt>
      <trkpt lat="46.51608" lon="4.67739">
        <ele>320.22</ele>
        <time>2020-07-13T13:13:07.999Z</time>
      </trkpt>
      <trkpt lat="46.516" lon="4.67746">
        <ele>319.87</ele>
        <time>2020-07-13T13:13:38.999Z</time>
      </trkpt>
      <trkpt lat="46.51589" lon="4.67743">
        <ele>319.67</ele>
        <time>2020-07-13T13:13:48.999Z</time>
      </trkpt>
      <trkpt lat="46.5158" lon="4.67739">
        <ele>319.51</ele>
        <time>2020-07-13T13:13:56.999Z</time>
      </trkpt>
      <trkpt lat="46.51572" lon="4.67734">
        <ele>319.32</ele>
        <time>2020-07-13T13:14:06.999Z</time>
      </trkpt>
      <trkpt lat="46.51562" lon="4.67735">
        <ele>319.13</ele>
        <time>2020-07-13T13:14:16.999Z</time>
      </trkpt>
      <trkpt lat="46.51553" lon="4.67734">
        <ele>318.95</ele>
        <time>2020-07-13T13:14:26.999Z</time>
      </trkpt>
      <trkpt lat="46.51547" lon="4.67724">
        <ele>318.51</ele>
        <time>2020-07-13T13:14:49.999Z</time>
      </trkpt>
      <trkpt lat="46.51538" lon="4.6772">
        <ele>318.31</ele>
        <time>2020-07-13T13:14:59.999Z</time>
      </trkpt>
      <trkpt lat="46.51528" lon="4.67717">
        <ele>318.07</ele>
        <time>2020-07-13T13:15:11.999Z</time>
      </trkpt>
      <trkpt lat="46.51519" lon="4.67714">
        <ele>317.92</ele>
        <time>2020-07-13T13:15:19.999Z</time>
      </trkpt>
      <trkpt lat="46.51509" lon="4.67711">
        <ele>317.75</ele>
        <time>2020-07-13T13:15:28.999Z</time>
      </trkpt>
      <trkpt lat="46.515" lon="4.67712">
        <ele>317.62</ele>
        <time>2020-07-13T13:15:35.999Z</time>
      </trkpt>
      <trkpt lat="46.51491" lon="4.67712">
        <ele>317.36</ele>
        <time>2020-07-13T13:15:56.999Z</time>
      </trkpt>
      <trkpt lat="46.51481" lon="4.67711">
        <ele>317.19</ele>
        <time>2020-07-13T13:16:07.999Z</time>
      </trkpt>
      <trkpt lat="46.51472" lon="4.67709">
        <ele>317.08</ele>
        <time>2020-07-13T13:16:14.999Z</time>
      </trkpt>
      <trkpt lat="46.51463" lon="4.67708">
        <ele>316.97</ele>
        <time>2020-07-13T13:16:21.999Z</time>
      </trkpt>
      <trkpt lat="46.51453" lon="4.67707">
        <ele>316.83</ele>
        <time>2020-07-13T13:16:29.999Z</time>
      </trkpt>
      <trkpt lat="46.51443" lon="4.67706">
        <ele>316.69</ele>
        <time>2020-07-13T13:16:38.999Z</time>
      </trkpt>
      <trkpt lat="46.51434" lon="4.67705">
        <ele>316.46</ele>
        <time>2020-07-13T13:16:52.999Z</time>
      </trkpt>
      <trkpt lat="46.51429" lon="4.67704">
        <ele>254.3</ele>
      </trkpt>
      <trkpt lat="46.51427" lon="4.67701">
        <ele>320.81</ele>
        <time>2020-07-14T06:13:58.000Z</time>
      </trkpt>
      <trkpt lat="46.51417" lon="4.677">
        <ele>320.75</ele>
        <time>2020-07-14T06:14:04.000Z</time>
      </trkpt>
      <trkpt lat="46.51408" lon="4.67697">
        <ele>320.7</ele>
        <time>2020-07-14T06:14:11.000Z</time>
      </trkpt>
      <trkpt lat="46.51399" lon="4.67698">
        <ele>320.62</ele>
        <time>2020-07-14T06:14:19.000Z</time>
      </trkpt>
      <trkpt lat="46.51389" lon="4.67695">
        <ele>320.55</ele>
        <time>2020-07-14T06:14:26.000Z</time>
      </trkpt>
      <trkpt lat="46.5138" lon="4.67692">
        <ele>320.42</ele>
        <time>2020-07-14T06:14:37.000Z</time>
      </trkpt>
      <trkpt lat="46.5137" lon="4.67695">
        <ele>320.36</ele>
        <time>2020-07-14T06:14:42.000Z</time>
      </trkpt>
      <trkpt lat="46.5136" lon="4.67697">
        <ele>320.29</ele>
        <time>2020-07-14T06:14:47.000Z</time>
      </trkpt>
      <trkpt lat="46.5135" lon="4.67697">
        <ele>320.2</ele>
        <time>2020-07-14T06:14:54.000Z</time>
      </trkpt>
      <trkpt lat="46.51341" lon="4.67695">
        <ele>320.01</ele>
        <time>2020-07-14T06:15:09.000Z</time>
      </trkpt>
      <trkpt lat="46.51336" lon="4.67707">
        <ele>319.03</ele>
        <time>2020-07-14T06:16:03.000Z</time>
      </trkpt>
      <trkpt lat="46.51329" lon="4.67718">
        <ele>318.66</ele>
        <time>2020-07-14T06:16:07.000Z</time>
      </trkpt>
      <trkpt lat="46.51322" lon="4.67726">
        <ele>318.49</ele>
        <time>2020-07-14T06:16:14.000Z</time>
      </trkpt>
      <trkpt lat="46.51319" lon="4.67728">
        <ele>317.25</ele>
        <time>2020-07-14T06:17:18.000Z</time>
      </trkpt>
      <trkpt lat="46.51312" lon="4.67718">
        <ele>316.79</ele>
        <time>2020-07-14T06:17:50.000Z</time>
      </trkpt>
      <trkpt lat="46.51308" lon="4.67703">
        <ele>316.58</ele>
        <time>2020-07-14T06:18:01.000Z</time>
      </trkpt>
      <trkpt lat="46.51306" lon="4.6769">
        <ele>316.42</ele>
        <time>2020-07-14T06:18:09.000Z</time>
      </trkpt>
      <trkpt lat="46.51305" lon="4.67677">
        <ele>316.25</ele>
        <time>2020-07-14T06:18:19.000Z</time>
      </trkpt>
      <trkpt lat="46.51302" lon="4.6766">
        <ele>316.07</ele>
        <time>2020-07-14T06:18:29.000Z</time>
      </trkpt>
      <trkpt lat="46.51303" lon="4.67646">
        <ele>315.9</ele>
        <time>2020-07-14T06:18:39.000Z</time>
      </trkpt>
      <trkpt lat="46.51307" lon="4.67632">
        <ele>315.74</ele>
        <time>2020-07-14T06:18:47.000Z</time>
      </trkpt>
      <trkpt lat="46.51308" lon="4.67619">
        <ele>315.5</ele>
        <time>2020-07-14T06:18:58.000Z</time>
      </trkpt>
      <trkpt lat="46.51304" lon="4.67606">
        <ele>315.25</ele>
        <time>2020-07-14T06:19:10.000Z</time>
      </trkpt>
      <trkpt lat="46.51299" lon="4.67596">
        <ele>315</ele>
        <time>2020-07-14T06:19:22.000Z</time>
      </trkpt>
      <trkpt lat="46.51293" lon="4.67584">
        <ele>314.9</ele>
        <time>2020-07-14T06:19:27.000Z</time>
      </trkpt>
      <trkpt lat="46.51286" lon="4.6757">
        <ele>314.76</ele>
        <time>2020-07-14T06:19:33.000Z</time>
      </trkpt>
      <trkpt lat="46.5128" lon="4.67556">
        <ele>314.58</ele>
        <time>2020-07-14T06:19:41.000Z</time>
      </trkpt>
      <trkpt lat="46.51276" lon="4.67543">
        <ele>314.43</ele>
        <time>2020-07-14T06:19:48.000Z</time>
      </trkpt>
      <trkpt lat="46.51274" lon="4.6753">
        <ele>314.28</ele>
        <time>2020-07-14T06:19:55.000Z</time>
      </trkpt>
      <trkpt lat="46.51274" lon="4.67516">
        <ele>314.08</ele>
        <time>2020-07-14T06:20:04.000Z</time>
      </trkpt>
      <trkpt lat="46.51274" lon="4.675">
        <ele>313.9</ele>
        <time>2020-07-14T06:20:13.000Z</time>
      </trkpt>
      <trkpt lat="46.51273" lon="4.67487">
        <ele>313.75</ele>
        <time>2020-07-14T06:20:21.000Z</time>
      </trkpt>
      <trkpt lat="46.5127" lon="4.67473">
        <ele>313.6</ele>
        <time>2020-07-14T06:20:29.000Z</time>
      </trkpt>
      <trkpt lat="46.51267" lon="4.6746">
        <ele>313.49</ele>
        <time>2020-07-14T06:20:35.000Z</time>
      </trkpt>
      <trkpt lat="46.51265" lon="4.67446">
        <ele>313.36</ele>
        <time>2020-07-14T06:20:42.000Z</time>
      </trkpt>
      <trkpt lat="46.51264" lon="4.67433">
        <ele>313.21</ele>
        <time>2020-07-14T06:20:50.000Z</time>
      </trkpt>
      <trkpt lat="46.51262" lon="4.67419">
        <ele>313.06</ele>
        <time>2020-07-14T06:20:58.000Z</time>
      </trkpt>
      <trkpt lat="46.51258" lon="4.67407">
        <ele>312.89</ele>
        <time>2020-07-14T06:21:06.000Z</time>
      </trkpt>
      <trkpt lat="46.51254" lon="4.67395">
        <ele>312.75</ele>
        <time>2020-07-14T06:21:13.000Z</time>
      </trkpt>
      <trkpt lat="46.51247" lon="4.67384">
        <ele>312.58</ele>
        <time>2020-07-14T06:21:21.000Z</time>
      </trkpt>
      <trkpt lat="46.51239" lon="4.67376">
        <ele>312.43</ele>
        <time>2020-07-14T06:21:28.000Z</time>
      </trkpt>
      <trkpt lat="46.51232" lon="4.67366">
        <ele>312.28</ele>
        <time>2020-07-14T06:21:35.000Z</time>
      </trkpt>
      <trkpt lat="46.51224" lon="4.6736">
        <ele>312.17</ele>
        <time>2020-07-14T06:21:41.000Z</time>
      </trkpt>
      <trkpt lat="46.51216" lon="4.67351">
        <ele>311.89</ele>
        <time>2020-07-14T06:21:48.000Z</time>
      </trkpt>
      <trkpt lat="46.5121" lon="4.67341">
        <ele>311.33</ele>
        <time>2020-07-14T06:21:56.000Z</time>
      </trkpt>
      <trkpt lat="46.51204" lon="4.6733">
        <ele>310.75</ele>
        <time>2020-07-14T06:22:04.000Z</time>
      </trkpt>
      <trkpt lat="46.512" lon="4.67317">
        <ele>310.15</ele>
        <time>2020-07-14T06:22:12.000Z</time>
      </trkpt>
      <trkpt lat="46.51199" lon="4.67303">
        <ele>309.56</ele>
        <time>2020-07-14T06:22:20.000Z</time>
      </trkpt>
      <trkpt lat="46.51199" lon="4.67287">
        <ele>308.98</ele>
        <time>2020-07-14T06:22:28.000Z</time>
      </trkpt>
      <trkpt lat="46.51202" lon="4.67274">
        <ele>308.29</ele>
        <time>2020-07-14T06:22:38.000Z</time>
      </trkpt>
      <trkpt lat="46.51204" lon="4.67257">
        <ele>307.59</ele>
        <time>2020-07-14T06:22:48.000Z</time>
      </trkpt>
      <trkpt lat="46.51206" lon="4.67243">
        <ele>306.99</ele>
        <time>2020-07-14T06:22:57.000Z</time>
      </trkpt>
      <trkpt lat="46.51208" lon="4.67228">
        <ele>306.47</ele>
        <time>2020-07-14T06:23:05.000Z</time>
      </trkpt>
      <trkpt lat="46.51211" lon="4.67215">
        <ele>305.98</ele>
        <time>2020-07-14T06:23:13.000Z</time>
      </trkpt>
      <trkpt lat="46.51215" lon="4.672">
        <ele>305.46</ele>
        <time>2020-07-14T06:23:21.000Z</time>
      </trkpt>
      <trkpt lat="46.51218" lon="4.67187">
        <ele>304.94</ele>
        <time>2020-07-14T06:23:29.000Z</time>
      </trkpt>
      <trkpt lat="46.51222" lon="4.67175">
        <ele>304.43</ele>
        <time>2020-07-14T06:23:37.000Z</time>
      </trkpt>
      <trkpt lat="46.51227" lon="4.67164">
        <ele>304.04</ele>
        <time>2020-07-14T06:23:43.000Z</time>
      </trkpt>
      <trkpt lat="46.5123" lon="4.67151">
        <ele>303.54</ele>
        <time>2020-07-14T06:23:50.000Z</time>
      </trkpt>
      <trkpt lat="46.51234" lon="4.67138">
        <ele>303.07</ele>
        <time>2020-07-14T06:23:57.000Z</time>
      </trkpt>
      <trkpt lat="46.51238" lon="4.67124">
        <ele>302.49</ele>
        <time>2020-07-14T06:24:06.000Z</time>
      </trkpt>
      <trkpt lat="46.51243" lon="4.67113">
        <ele>301.94</ele>
        <time>2020-07-14T06:24:15.000Z</time>
      </trkpt>
      <trkpt lat="46.51248" lon="4.671">
        <ele>301.46</ele>
        <time>2020-07-14T06:24:23.000Z</time>
      </trkpt>
      <trkpt lat="46.51252" lon="4.67088">
        <ele>301</ele>
        <time>2020-07-14T06:24:30.000Z</time>
      </trkpt>
      <trkpt lat="46.51255" lon="4.67076">
        <ele>300.56</ele>
        <time>2020-07-14T06:24:37.000Z</time>
      </trkpt>
      <trkpt lat="46.5126" lon="4.67064">
        <ele>300.04</ele>
        <time>2020-07-14T06:24:45.000Z</time>
      </trkpt>
      <trkpt lat="46.51265" lon="4.67052">
        <ele>299.61</ele>
        <time>2020-07-14T06:24:51.000Z</time>
      </trkpt>
      <trkpt lat="46.5127" lon="4.67038">
        <ele>299.01</ele>
        <time>2020-07-14T06:24:59.000Z</time>
      </trkpt>
      <trkpt lat="46.51276" lon="4.67027">
        <ele>298.34</ele>
        <time>2020-07-14T06:25:07.000Z</time>
      </trkpt>
      <trkpt lat="46.51282" lon="4.67016">
        <ele>297.78</ele>
        <time>2020-07-14T06:25:13.000Z</time>
      </trkpt>
      <trkpt lat="46.51287" lon="4.67005">
        <ele>296.96</ele>
        <time>2020-07-14T06:25:22.000Z</time>
      </trkpt>
      <trkpt lat="46.51293" lon="4.66995">
        <ele>296.26</ele>
        <time>2020-07-14T06:25:30.000Z</time>
      </trkpt>
      <trkpt lat="46.513" lon="4.66985">
        <ele>295.58</ele>
        <time>2020-07-14T06:25:38.000Z</time>
      </trkpt>
      <trkpt lat="46.51305" lon="4.66973">
        <ele>294.96</ele>
        <time>2020-07-14T06:25:45.000Z</time>
      </trkpt>
      <trkpt lat="46.51311" lon="4.66962">
        <ele>294.14</ele>
        <time>2020-07-14T06:25:55.000Z</time>
      </trkpt>
      <trkpt lat="46.51316" lon="4.66951">
        <ele>293.57</ele>
        <time>2020-07-14T06:26:03.000Z</time>
      </trkpt>
      <trkpt lat="46.51322" lon="4.66938">
        <ele>293.06</ele>
        <time>2020-07-14T06:26:10.000Z</time>
      </trkpt>
      <trkpt lat="46.51331" lon="4.66936">
        <ele>219.1</ele>
        <time>2020-07-14T06:26:52.000Z</time>
      </trkpt>
    </trkseg>
  </trk>
</gpx>